Accueil
METAR-TAF:

METAR-TAF

Aéroports :

Koror, Babeldaob, Palaos

Aéroport international Roman-Tmetuchl

latitude: 07-22N, longitude: 134-32E, altitude: 54 m

Observation

Le bulletin a été fait il y a 21 minutes, à 19:50 UTC
Vent 11 kt de est avec des rafales jusqu'à 16 kt
Température 27°C
Humidité 84%
Pression 1008 hPa
Visibilité: 22.5 km
Nuages fragmentés à une hauteur de 1600 ft, Cumulonimbus.
Ciel couvert à une hauteur de 29000 ft

METAR: PTRO 231950Z 08011G16KT 14SM BKN016CB OVC290 27/24 A2977 RMK CB ALQDS

Heure: 05:11 (20:11 UTC)

Prévision

Le bulletin a été fait il y a 2 heures et 51 minutes, à 17:20 UTC
Prévision valable du 23 à 18 UTC au 24 à 18 UTC
Vent 10 kt de est/nord-est avec des rafales jusqu'à 16 kt
Visibilité: 10 km
Nuages épars à une hauteur de 1600 ft
Nuages fragmentés à une hauteur de 12000 ft
averses à proximité

TAF: PTRO 231720Z 2318/2418 07010G16KT P6SM VCSH SCT016 BKN120

Observations et prévisions météorologiques de plus de 4000 aéroports (messages METAR et TAF).

Les stations disponibles sont représentées par des disques jaunes et rouges sur la carte.

Passer la souris dessus pour voir le nom de la station.

Cliquer dessus pour voir les observations et prévisions météorologiques.

Pour changer de carte: cliquez sur les boutons verts avec une croix noire pour zoomer, sur le bouton vert avec un tiret pour effectuer un zoom arrière, ou sur les flèches vertes pour les cartes adjacentes.


METAR-TAF: